createdAt,value
2018-03-01T00:00:23.221Z,18.80
2018-03-01T00:02:51.696Z,24.77
2018-03-01T00:05:20.707Z,15.33
2018-03-01T00:07:49.696Z,17.37
2018-03-01T00:10:18.453Z,16.00
2018-03-01T00:12:47.284Z,15.80
2018-03-01T00:15:16.699Z,17.20
2018-03-01T00:17:45.303Z,14.67
2018-03-01T00:20:14.060Z,21.20
2018-03-01T00:22:42.870Z,18.70
2018-03-01T00:25:11.587Z,16.33
2018-03-01T00:27:40.267Z,22.53
2018-03-01T00:30:09.293Z,20.90
2018-03-01T00:32:37.867Z,17.10
2018-03-01T00:35:08.112Z,17.70
2018-03-01T00:37:36.925Z,17.87
2018-03-01T00:40:06.029Z,24.10
2018-03-01T00:42:34.483Z,10.00
2018-03-01T00:45:02.996Z,16.80
2018-03-01T00:47:31.546Z,15.10
2018-03-01T00:50:00.303Z,17.20
2018-03-01T00:52:28.987Z,16.67
2018-03-01T00:54:57.598Z,22.33
2018-03-01T00:57:26.078Z,19.23
2018-03-01T00:59:54.812Z,17.40
2018-03-01T01:02:23.701Z,17.37
2018-03-01T01:04:52.251Z,16.27
2018-03-01T01:07:20.936Z,15.00
2018-03-01T01:09:49.523Z,14.67
2018-03-01T01:12:18.343Z,15.00
2018-03-01T01:14:46.790Z,17.30
2018-03-01T01:17:15.439Z,15.40
2018-03-01T01:19:44.105Z,18.40
2018-03-01T01:22:12.796Z,15.93
2018-03-01T01:24:41.644Z,16.33
2018-03-01T01:27:10.166Z,14.80
2018-03-01T01:29:38.791Z,18.50
2018-03-01T01:32:07.271Z,11.63
2018-03-01T01:34:35.956Z,15.33
2018-03-01T01:37:04.491Z,12.07
2018-03-01T01:39:32.938Z,13.03
2018-03-01T01:42:01.367Z,12.73
2018-03-01T01:44:30.723Z,19.03
2018-03-01T01:46:59.220Z,17.20
2018-03-01T01:49:28.159Z,17.20
2018-03-01T01:51:57.012Z,17.07
2018-03-01T01:54:25.750Z,12.27
2018-03-01T01:56:54.198Z,13.37
2018-03-01T01:59:22.689Z,18.70
2018-03-01T02:01:51.203Z,12.53
2018-03-01T02:04:19.780Z,13.27
2018-03-01T02:06:48.511Z,9.10
2018-03-01T02:09:16.950Z,16.13
2018-03-01T02:11:45.426Z,18.80
2018-03-01T02:14:13.890Z,14.80
2018-03-01T02:16:42.494Z,15.10
2018-03-01T02:19:11.331Z,15.03
2018-03-01T02:21:39.839Z,15.00
2018-03-01T02:24:08.294Z,16.63
2018-03-01T02:26:36.735Z,11.20
2018-03-01T02:29:05.219Z,9.90
2018-03-01T02:31:33.864Z,11.17
2018-03-01T02:34:02.605Z,16.67
2018-03-01T02:36:33.668Z,15.17
2018-03-01T02:39:02.104Z,13.33
2018-03-01T02:41:30.580Z,17.33
2018-03-01T02:43:59.165Z,13.03
2018-03-01T02:46:27.776Z,10.60
2018-03-01T02:48:56.431Z,15.60
2018-03-01T02:51:24.864Z,13.90
2018-03-01T02:53:53.329Z,14.40
2018-03-01T02:56:21.843Z,14.27
2018-03-01T02:58:50.251Z,13.23
2018-03-01T03:01:18.706Z,14.27
2018-03-01T03:03:47.227Z,14.30
2018-03-01T03:06:15.770Z,12.47
2018-03-01T03:08:44.150Z,13.10
2018-03-01T03:11:12.690Z,8.33
2018-03-01T03:13:41.148Z,17.33
2018-03-01T03:16:09.687Z,14.90
2018-03-01T03:18:38.333Z,13.87
2018-03-01T03:21:06.772Z,19.87
2018-03-01T03:23:35.285Z,14.87
2018-03-01T03:26:03.781Z,11.13
2018-03-01T03:28:32.242Z,13.97
2018-03-01T03:31:00.788Z,13.43
2018-03-01T03:33:29.414Z,18.77
2018-03-01T03:35:57.958Z,12.20
2018-03-01T03:38:26.647Z,15.03
2018-03-01T03:40:55.262Z,13.33
2018-03-01T03:43:23.811Z,15.70
2018-03-01T03:45:52.543Z,18.90
2018-03-01T03:48:21.007Z,12.63
2018-03-01T03:50:49.820Z,13.37
2018-03-01T03:53:18.247Z,13.33
2018-03-01T03:55:46.674Z,17.10
2018-03-01T03:58:15.106Z,12.30
2018-03-01T04:00:43.971Z,14.40
2018-03-01T04:03:22.254Z,15.53
2018-03-01T04:05:57.917Z,13.50
2018-03-01T04:08:26.387Z,11.67
2018-03-01T04:10:54.885Z,17.07
2018-03-01T04:13:23.521Z,11.93
2018-03-01T04:15:52.247Z,12.20
2018-03-01T04:18:20.891Z,11.83
2018-03-01T04:20:49.443Z,10.13
2018-03-01T04:23:18.222Z,17.23
2018-03-01T04:25:46.774Z,16.43
2018-03-01T04:28:15.411Z,13.30
2018-03-01T04:30:44.147Z,15.73
2018-03-01T04:33:12.600Z,17.40
2018-03-01T04:35:41.330Z,15.30
2018-03-01T04:38:09.956Z,13.93
2018-03-01T04:40:38.675Z,12.80
2018-03-01T04:43:07.119Z,13.30
2018-03-01T04:45:35.647Z,10.80
2018-03-01T04:48:04.084Z,10.83
2018-03-01T04:50:32.810Z,13.00
2018-03-01T04:53:01.320Z,12.97
2018-03-01T04:55:29.767Z,16.07
2018-03-01T04:57:58.641Z,8.70
2018-03-01T05:03:22.411Z,9.30
2018-03-01T05:05:51.677Z,19.20
2018-03-01T05:08:21.990Z,16.03
2018-03-01T05:10:51.820Z,20.97
2018-03-01T05:13:21.477Z,20.73
2018-03-01T05:15:51.204Z,11.97
2018-03-01T05:18:21.030Z,16.93
2018-03-01T05:20:49.648Z,17.20
2018-03-01T05:23:18.610Z,11.20
2018-03-01T05:25:47.324Z,13.50
2018-03-01T05:28:15.664Z,14.10
2018-03-01T05:30:44.078Z,13.67
2018-03-01T05:33:12.351Z,19.80
2018-03-01T05:35:40.662Z,14.90
2018-03-01T05:38:08.945Z,19.10
2018-03-01T05:40:37.991Z,16.77
2018-03-01T05:43:06.581Z,17.40
2018-03-01T05:45:34.985Z,13.57
2018-03-01T05:48:03.972Z,18.20
2018-03-01T05:50:34.074Z,15.87
2018-03-01T05:53:02.723Z,15.27
2018-03-01T05:55:31.062Z,16.03
2018-03-01T05:57:59.426Z,18.60
2018-03-01T06:00:27.761Z,16.20
2018-03-01T06:02:56.295Z,16.13
2018-03-01T06:05:24.611Z,21.87
2018-03-01T06:07:53.120Z,22.47
2018-03-01T06:10:21.502Z,19.37
2018-03-01T06:12:49.987Z,14.23
2018-03-01T06:15:18.527Z,17.57
2018-03-01T06:17:46.851Z,14.87
2018-03-01T06:20:15.559Z,13.23
2018-03-01T06:22:43.952Z,18.70
2018-03-01T06:25:12.278Z,19.67
2018-03-01T06:27:40.702Z,19.87
2018-03-01T06:30:09.254Z,17.93
2018-03-01T06:32:37.584Z,21.93
2018-03-01T06:35:05.955Z,13.40
2018-03-01T06:37:34.256Z,15.67
2018-03-01T06:40:02.551Z,23.60
2018-03-01T06:42:30.924Z,22.57
2018-03-01T06:44:59.220Z,19.90
2018-03-01T06:47:27.783Z,17.33
2018-03-01T06:49:56.087Z,22.87
2018-03-01T06:52:24.647Z,20.83
2018-03-01T06:54:53.023Z,21.63
2018-03-01T06:57:21.349Z,20.13
2018-03-01T06:59:49.680Z,22.53
2018-03-01T07:02:18.376Z,17.80
2018-03-01T07:04:46.667Z,19.20
2018-03-01T07:07:14.986Z,16.23
2018-03-01T07:09:43.414Z,8.50
2018-03-01T07:12:11.787Z,19.47
2018-03-01T07:14:40.239Z,12.93
2018-03-01T07:17:08.564Z,14.57
2018-03-01T07:19:36.932Z,16.07
2018-03-01T07:22:05.334Z,16.90
2018-03-01T07:24:33.697Z,26.20
2018-03-01T07:27:02.099Z,11.50
2018-03-01T07:29:30.533Z,26.53
2018-03-01T07:31:58.864Z,21.00
2018-03-01T07:34:27.379Z,18.93
2018-03-01T07:36:55.723Z,19.67
2018-03-01T07:39:24.034Z,24.07
2018-03-01T07:41:52.376Z,19.37
2018-03-01T07:44:20.906Z,17.93
2018-03-01T07:46:49.280Z,18.00
2018-03-01T07:49:17.559Z,17.90
2018-03-01T07:51:45.847Z,25.03
2018-03-01T07:54:14.296Z,20.23
2018-03-01T07:56:42.603Z,21.60
2018-03-01T07:59:11.589Z,24.97
2018-03-01T08:01:39.935Z,25.40
2018-03-01T08:04:08.219Z,23.07
2018-03-01T08:06:36.567Z,26.83
2018-03-01T08:09:05.633Z,19.30
2018-03-01T08:11:33.976Z,21.83
2018-03-01T08:14:02.390Z,24.20
2018-03-01T08:16:30.784Z,16.60
2018-03-01T08:18:59.114Z,19.70
2018-03-01T08:21:27.469Z,27.47
2018-03-01T08:23:55.775Z,20.90
2018-03-01T08:26:24.771Z,26.33
2018-03-01T08:28:53.560Z,17.97
2018-03-01T08:31:21.917Z,23.23
2018-03-01T08:33:50.231Z,27.80
2018-03-01T08:36:18.554Z,17.87
2018-03-01T08:38:46.886Z,23.37
2018-03-01T08:41:15.390Z,18.70
2018-03-01T08:43:43.871Z,23.23
2018-03-01T08:46:12.183Z,20.63
2018-03-01T08:48:40.831Z,20.10
2018-03-01T08:51:09.288Z,21.23
2018-03-01T08:53:37.979Z,22.77
2018-03-01T08:56:06.314Z,25.27
2018-03-01T08:58:34.811Z,10.63
2018-03-01T09:01:03.102Z,21.43
2018-03-01T09:03:31.391Z,24.50
2018-03-01T09:06:00.100Z,13.50
2018-03-01T09:08:28.419Z,20.60
2018-03-01T09:10:57.049Z,17.93
2018-03-01T09:13:25.886Z,20.50
2018-03-01T09:15:54.285Z,27.93
2018-03-01T09:18:22.638Z,12.33
2018-03-01T09:20:51.040Z,20.90
2018-03-01T09:23:19.406Z,23.20
2018-03-01T09:25:47.718Z,18.40
2018-03-01T09:28:16.067Z,19.77
2018-03-01T09:30:44.406Z,15.23
2018-03-01T09:33:12.791Z,23.43
2018-03-01T09:35:41.147Z,14.27
2018-03-01T09:38:09.502Z,21.60
2018-03-01T09:40:38.011Z,17.40
2018-03-01T09:43:07.486Z,19.63
2018-03-01T09:45:35.815Z,17.93
2018-03-01T09:48:04.084Z,22.63
2018-03-01T09:50:32.415Z,21.00
2018-03-01T09:53:00.700Z,23.80
2018-03-01T09:55:29.023Z,21.73
2018-03-01T09:57:57.377Z,23.83
2018-03-01T10:00:25.716Z,26.10
2018-03-01T10:02:54.214Z,20.33
2018-03-01T10:05:22.526Z,18.43
2018-03-01T10:07:51.140Z,22.00
2018-03-01T10:10:19.442Z,20.27
2018-03-01T10:12:47.819Z,26.03
2018-03-01T10:15:16.297Z,21.67
2018-03-01T10:17:44.600Z,20.73
2018-03-01T10:20:13.227Z,16.20
2018-03-01T10:22:42.541Z,26.87
2018-03-01T10:25:10.982Z,22.40
2018-03-01T10:27:40.189Z,24.10
2018-03-01T10:30:08.567Z,21.30
2018-03-01T10:32:36.978Z,29.13
2018-03-01T10:35:05.307Z,20.73
2018-03-01T10:37:33.654Z,21.63
2018-03-01T10:40:01.899Z,17.10
2018-03-01T10:42:30.248Z,23.20
2018-03-01T10:44:58.679Z,21.73
2018-03-01T10:47:27.016Z,20.77
2018-03-01T10:49:55.310Z,25.90
2018-03-01T10:52:23.723Z,22.63
2018-03-01T10:54:52.052Z,22.07
2018-03-01T10:57:20.387Z,27.70
2018-03-01T10:59:48.699Z,18.37
2018-03-01T11:02:17.244Z,24.50
2018-03-01T11:04:45.556Z,19.50
2018-03-01T11:07:13.983Z,20.87
2018-03-01T11:09:42.420Z,20.57
2018-03-01T11:12:10.735Z,15.43
2018-03-01T11:14:39.883Z,20.93
2018-03-01T11:17:08.199Z,16.60
2018-03-01T11:19:36.543Z,26.57
2018-03-01T11:22:04.931Z,18.57
2018-03-01T11:24:34.209Z,21.87
2018-03-01T11:27:02.573Z,17.87
2018-03-01T11:29:30.937Z,22.67
2018-03-01T11:31:59.350Z,24.30
2018-03-01T11:34:27.630Z,22.87
2018-03-01T11:36:56.121Z,27.77
2018-03-01T11:39:24.600Z,24.93
2018-03-01T11:41:52.942Z,26.10
2018-03-01T11:44:21.579Z,21.47
2018-03-01T11:46:49.887Z,19.53
2018-03-01T11:49:18.183Z,22.07
2018-03-01T11:51:46.723Z,28.80
2018-03-01T11:54:15.023Z,22.40
2018-03-01T11:56:43.363Z,20.50
2018-03-01T11:59:11.904Z,26.97
2018-03-01T12:01:40.227Z,25.37
2018-03-01T12:04:08.538Z,20.93
2018-03-01T12:06:37.055Z,18.80
2018-03-01T12:09:06.358Z,18.53
2018-03-01T12:11:35.464Z,19.77
2018-03-01T12:14:03.955Z,22.07
2018-03-01T12:16:32.331Z,21.43
2018-03-01T12:19:00.667Z,17.23
2018-03-01T12:21:29.020Z,25.03
2018-03-01T12:23:57.566Z,24.73
2018-03-01T12:26:26.212Z,21.13
2018-03-01T12:28:54.575Z,17.43
2018-03-01T12:31:23.298Z,20.90
2018-03-01T12:33:51.616Z,22.47
2018-03-01T12:36:19.968Z,26.60
2018-03-01T12:38:48.264Z,21.07
2018-03-01T12:41:16.764Z,21.10
2018-03-01T12:43:45.223Z,29.03
2018-03-01T12:46:13.558Z,24.57
2018-03-01T12:48:42.320Z,18.50
2018-03-01T12:51:10.659Z,22.40
2018-03-01T12:53:38.942Z,17.97
2018-03-01T12:56:07.284Z,18.57
2018-03-01T12:58:35.600Z,21.20
2018-03-01T13:01:04.227Z,24.30
2018-03-01T13:03:32.791Z,20.77
2018-03-01T13:06:01.119Z,17.83
2018-03-01T13:08:29.836Z,20.23
2018-03-01T13:10:58.179Z,21.50
2018-03-01T13:13:26.703Z,19.33
2018-03-01T13:15:55.053Z,23.30
2018-03-01T13:18:23.392Z,22.73
2018-03-01T13:20:51.742Z,19.30
2018-03-01T13:23:20.148Z,21.87
2018-03-01T13:25:48.561Z,21.00
2018-03-01T13:28:16.875Z,20.40
2018-03-01T13:30:45.419Z,20.47
2018-03-01T13:33:14.098Z,23.40
2018-03-01T13:35:42.515Z,18.50
2018-03-01T13:38:12.595Z,25.13
2018-03-01T13:40:41.051Z,24.20
2018-03-01T13:43:09.685Z,26.60
2018-03-01T13:45:38.023Z,33.93
2018-03-01T13:48:07.840Z,26.63
2018-03-01T13:50:36.155Z,37.80
2018-03-01T13:53:04.483Z,22.30
2018-03-01T13:55:32.827Z,24.50
2018-03-01T13:58:01.186Z,26.70
2018-03-01T14:00:29.744Z,22.63
2018-03-01T14:02:58.309Z,24.17
2018-03-01T14:05:26.644Z,18.30
2018-03-01T14:07:54.971Z,18.87
2018-03-01T14:10:23.379Z,20.50
2018-03-01T14:12:51.687Z,18.63
2018-03-01T14:15:20.196Z,18.00
2018-03-01T14:17:48.943Z,22.90
2018-03-01T14:20:17.754Z,31.97
2018-03-01T14:22:46.215Z,17.30
2018-03-01T14:25:14.624Z,25.93
2018-03-01T14:27:43.018Z,19.03
2018-03-01T14:30:11.907Z,17.90
2018-03-01T14:32:40.319Z,21.43
2018-03-01T14:35:08.739Z,17.07
2018-03-01T14:37:37.026Z,26.73
2018-03-01T14:40:05.530Z,20.20
2018-03-01T14:42:33.819Z,19.23
2018-03-01T14:45:02.100Z,19.40
2018-03-01T14:47:30.512Z,21.60
2018-03-01T14:49:58.808Z,19.10
2018-03-01T14:52:27.173Z,20.07
2018-03-01T14:54:56.414Z,29.07
2018-03-01T14:57:25.167Z,17.47
2018-03-01T14:59:53.479Z,22.53
2018-03-01T15:02:22.215Z,26.70
2018-03-01T15:04:50.535Z,24.17
2018-03-01T15:07:19.215Z,16.20
2018-03-01T15:09:48.234Z,29.63
2018-03-01T15:12:16.816Z,22.27
2018-03-01T15:14:45.111Z,21.17
2018-03-01T15:17:13.418Z,22.07
2018-03-01T15:19:41.775Z,23.40
2018-03-01T15:22:10.167Z,18.93
2018-03-01T15:24:38.483Z,18.67
2018-03-01T15:27:06.843Z,22.37
2018-03-01T15:29:35.148Z,25.13
2018-03-01T15:32:03.683Z,24.33
2018-03-01T15:34:32.664Z,22.00
2018-03-01T15:37:01.028Z,23.20
2018-03-01T15:39:29.564Z,23.50
2018-03-01T15:41:58.004Z,21.10
2018-03-01T15:44:26.339Z,28.93
2018-03-01T15:46:54.760Z,21.70
2018-03-01T15:49:23.069Z,28.77
2018-03-01T15:51:51.383Z,25.57
2018-03-01T15:54:19.726Z,26.67
2018-03-01T15:56:48.119Z,28.77
2018-03-01T15:59:16.547Z,23.67
2018-03-01T16:01:44.852Z,25.10
2018-03-01T16:04:13.642Z,15.80
2018-03-01T16:06:42.621Z,26.70
2018-03-01T16:09:11.086Z,29.97
2018-03-01T16:11:39.405Z,17.97
2018-03-01T16:14:07.711Z,23.10
2018-03-01T16:16:36.053Z,21.13
2018-03-01T16:19:04.878Z,31.80
2018-03-01T16:21:34.126Z,22.80
2018-03-01T16:24:02.739Z,23.23
2018-03-01T16:26:31.112Z,23.60
2018-03-01T16:28:59.415Z,23.47
2018-03-01T16:31:27.762Z,26.97
2018-03-01T16:33:56.854Z,20.00
2018-03-01T16:36:25.206Z,22.87
2018-03-01T16:38:53.517Z,26.20
2018-03-01T16:41:21.925Z,23.10
2018-03-01T16:43:50.580Z,26.00
2018-03-01T16:46:19.140Z,24.40
2018-03-01T16:48:47.743Z,19.00
2018-03-01T16:51:16.120Z,29.50
2018-03-01T16:53:44.521Z,27.70
2018-03-01T16:56:12.843Z,27.23
2018-03-01T16:58:41.191Z,32.43
2018-03-01T17:01:09.610Z,24.90
2018-03-01T17:03:37.959Z,26.10
2018-03-01T17:06:06.663Z,23.97
2018-03-01T17:08:35.044Z,24.70
2018-03-01T17:11:03.644Z,25.60
2018-03-01T17:13:32.025Z,20.47
2018-03-01T17:16:00.369Z,23.90
2018-03-01T17:18:28.694Z,26.50
2018-03-01T17:20:57.183Z,24.50
2018-03-01T17:23:25.506Z,19.87
2018-03-01T17:25:53.836Z,23.23
2018-03-01T17:28:22.141Z,23.90
2018-03-01T17:30:50.947Z,24.60
2018-03-01T17:33:19.332Z,30.63
2018-03-01T17:35:47.871Z,30.57
2018-03-01T17:38:16.514Z,36.23
2018-03-01T17:40:44.863Z,27.97
2018-03-01T17:43:13.152Z,28.57
2018-03-01T17:45:41.495Z,25.80
2018-03-01T17:48:09.821Z,26.03
2018-03-01T17:50:38.169Z,29.60
2018-03-01T17:53:07.403Z,31.47
2018-03-01T17:55:35.740Z,27.60
2018-03-01T17:58:04.106Z,24.50
2018-03-01T18:00:32.479Z,24.57
2018-03-01T18:03:00.787Z,28.10
2018-03-01T18:05:29.772Z,27.10
2018-03-01T18:07:59.091Z,24.57
2018-03-01T18:10:28.215Z,29.50
2018-03-01T18:12:58.342Z,23.33
2018-03-01T18:15:27.404Z,31.17
2018-03-01T18:17:55.789Z,27.77
2018-03-01T18:20:24.185Z,25.10
2018-03-01T18:22:52.923Z,22.53
2018-03-01T18:25:21.387Z,28.60
2018-03-01T18:27:49.895Z,25.83
2018-03-01T18:30:18.395Z,29.63
2018-03-01T18:32:46.708Z,32.57
2018-03-01T18:35:15.028Z,27.57
2018-03-01T18:37:43.484Z,34.67
2018-03-01T18:40:12.051Z,22.80
2018-03-01T18:42:40.423Z,28.50
2018-03-01T18:45:08.729Z,30.47
2018-03-01T18:47:37.053Z,21.40
2018-03-01T18:50:05.413Z,26.23
2018-03-01T18:52:34.559Z,32.37
2018-03-01T18:55:02.996Z,31.70
2018-03-01T18:57:31.906Z,25.70
2018-03-01T19:00:00.346Z,25.33
2018-03-01T19:02:28.850Z,23.30
2018-03-01T19:04:57.495Z,31.07
2018-03-01T19:07:25.900Z,18.43
2018-03-01T19:09:54.233Z,23.73
2018-03-01T19:12:22.600Z,28.50
2018-03-01T19:14:50.880Z,34.90
2018-03-01T19:17:19.184Z,29.33
2018-03-01T19:19:47.675Z,21.97
2018-03-01T19:22:16.205Z,30.77
2018-03-01T19:24:44.592Z,24.10
2018-03-01T19:27:12.939Z,30.10
2018-03-01T19:29:42.141Z,29.03
2018-03-01T19:32:10.644Z,28.83
2018-03-01T19:34:40.103Z,29.13
2018-03-01T19:37:08.804Z,30.20
2018-03-01T19:39:37.868Z,29.20
2018-03-01T19:42:06.445Z,25.70
2018-03-01T19:44:34.759Z,24.33
2018-03-01T19:47:03.063Z,25.93
2018-03-01T19:49:31.440Z,28.90
2018-03-01T19:51:59.763Z,30.10
2018-03-01T19:54:28.167Z,28.13
2018-03-01T19:56:57.447Z,22.63
2018-03-01T19:59:25.986Z,31.17
2018-03-01T20:01:55.794Z,26.00
2018-03-01T20:04:24.376Z,27.10
2018-03-01T20:06:52.772Z,31.30
2018-03-01T20:09:21.105Z,22.13
2018-03-01T20:11:49.579Z,28.90
2018-03-01T20:14:18.022Z,40.90
2018-03-01T20:16:46.350Z,30.93
2018-03-01T20:19:14.663Z,31.53
2018-03-01T20:21:43.331Z,24.70
2018-03-01T20:24:12.115Z,24.77
2018-03-01T20:26:40.776Z,28.20
2018-03-01T20:29:09.321Z,30.03
2018-03-01T20:31:38.174Z,25.57
2018-03-01T20:34:07.094Z,23.03
2018-03-01T20:36:35.511Z,30.97
2018-03-01T20:39:03.877Z,25.43
2018-03-01T20:41:32.565Z,29.60
2018-03-01T20:44:01.070Z,29.20
2018-03-01T20:46:29.570Z,23.37
2018-03-01T20:48:58.307Z,27.20
2018-03-01T20:51:27.114Z,37.40
2018-03-01T20:53:55.964Z,24.60
2018-03-01T20:56:24.370Z,37.63
2018-03-01T20:58:52.740Z,24.27
2018-03-01T21:01:21.126Z,34.00
2018-03-01T21:03:49.742Z,26.33
2018-03-01T21:06:18.167Z,31.83
2018-03-01T21:08:46.632Z,49.87
2018-03-01T21:11:15.079Z,24.50
2018-03-01T21:13:43.485Z,33.50
2018-03-01T21:16:11.835Z,40.73
2018-03-01T21:18:40.155Z,29.23
2018-03-01T21:21:08.604Z,17.43
2018-03-01T21:23:37.022Z,29.83
2018-03-01T21:26:05.471Z,29.53
2018-03-01T21:28:33.857Z,27.37
2018-03-01T21:31:03.223Z,30.93
2018-03-01T21:33:31.622Z,31.73
2018-03-01T21:36:00.295Z,25.57
2018-03-01T21:38:28.599Z,32.20
2018-03-01T21:40:56.955Z,26.83
2018-03-01T21:43:25.756Z,25.37
2018-03-01T21:45:54.150Z,31.10
2018-03-01T21:48:22.485Z,61.00
2018-03-01T21:50:50.968Z,24.80
2018-03-01T21:53:19.446Z,27.50
2018-03-01T21:55:47.824Z,34.83
2018-03-01T21:58:16.171Z,25.83
2018-03-01T22:00:44.502Z,28.50
2018-03-01T22:03:12.952Z,37.90
2018-03-01T22:05:41.403Z,30.27
2018-03-01T22:08:09.752Z,33.27
2018-03-01T22:10:38.200Z,28.33
2018-03-01T22:13:06.852Z,27.40
2018-03-01T22:15:35.187Z,31.13
2018-03-01T22:18:03.773Z,24.07
2018-03-01T22:20:32.119Z,28.07
2018-03-01T22:23:00.470Z,27.93
2018-03-01T22:25:29.082Z,32.63
2018-03-01T22:27:57.390Z,27.93
2018-03-01T22:30:25.754Z,29.67
2018-03-01T22:32:54.108Z,32.43
2018-03-01T22:35:22.426Z,30.33
2018-03-01T22:37:50.740Z,32.80
2018-03-01T22:40:19.130Z,28.30
2018-03-01T22:42:47.420Z,31.20
2018-03-01T22:45:15.779Z,31.50
2018-03-01T22:47:44.102Z,31.57
2018-03-01T22:50:12.451Z,34.67
2018-03-01T22:52:41.170Z,34.93
2018-03-01T22:55:09.632Z,34.03
2018-03-01T22:57:37.967Z,23.00
2018-03-01T23:00:06.314Z,33.37
2018-03-01T23:02:34.965Z,32.97
2018-03-01T23:05:03.266Z,33.03
2018-03-01T23:07:31.608Z,29.13
2018-03-01T23:10:00.068Z,31.70
2018-03-01T23:12:28.498Z,33.30
2018-03-01T23:14:56.904Z,30.53
2018-03-01T23:17:25.335Z,31.60
2018-03-01T23:19:53.648Z,31.30
2018-03-01T23:22:22.092Z,32.77
2018-03-01T23:24:50.384Z,32.10
2018-03-01T23:27:18.853Z,35.70
2018-03-01T23:29:47.147Z,31.30
2018-03-01T23:32:15.603Z,27.33
2018-03-01T23:34:43.926Z,35.23
2018-03-01T23:37:12.247Z,28.47
2018-03-01T23:39:40.588Z,30.50
2018-03-01T23:42:09.090Z,28.87
2018-03-01T23:44:37.429Z,30.90
2018-03-01T23:47:05.760Z,33.83
2018-03-01T23:49:34.319Z,25.40
2018-03-01T23:52:02.636Z,32.17
2018-03-01T23:54:31.084Z,30.93
2018-03-01T23:56:59.441Z,29.80
2018-03-01T23:59:27.755Z,31.53
